sensor_id;sensor_type;location;lat;lon;timestamp;temperature;humidity
43842;DHT22;29495;49.970;20.842;2023-04-29T00:00:54;8.20;99.90
43842;DHT22;29495;49.970;20.842;2023-04-29T00:03:36;8.30;99.90
43842;DHT22;29495;49.970;20.842;2023-04-29T00:06:06;8.30;99.90
43842;DHT22;29495;49.970;20.842;2023-04-29T00:08:50;8.40;99.90
43842;DHT22;29495;49.970;20.842;2023-04-29T00:11:49;8.40;99.90
43842;DHT22;29495;49.970;20.842;2023-04-29T00:15:32;8.50;99.90
43842;DHT22;29495;49.970;20.842;2023-04-29T00:18:20;8.60;99.90
43842;DHT22;29495;49.970;20.842;2023-04-29T00:20:51;8.70;99.90
43842;DHT22;29495;49.970;20.842;2023-04-29T00:23:28;8.80;99.90
43842;DHT22;29495;49.970;20.842;2023-04-29T00:25:57;8.90;99.90
43842;DHT22;29495;49.970;20.842;2023-04-29T00:28:47;8.90;99.90
43842;DHT22;29495;49.970;20.842;2023-04-29T00:31:19;9.00;99.90
43842;DHT22;29495;49.970;20.842;2023-04-29T00:34:02;9.10;99.90
43842;DHT22;29495;49.970;20.842;2023-04-29T00:37:20;9.20;99.90
43842;DHT22;29495;49.970;20.842;2023-04-29T00:39:46;9.10;99.90
43842;DHT22;29495;49.970;20.842;2023-04-29T00:42:15;9.20;99.90
43842;DHT22;29495;49.970;20.842;2023-04-29T00:44:44;9.20;99.90
43842;DHT22;29495;49.970;20.842;2023-04-29T00:54:43;9.20;99.90
43842;DHT22;29495;49.970;20.842;2023-04-29T05:05:39;10.30;99.90
43842;DHT22;29495;49.970;20.842;2023-04-29T05:09:08;10.30;99.90
43842;DHT22;29495;49.970;20.842;2023-04-29T05:12:12;10.30;99.90
43842;DHT22;29495;49.970;20.842;2023-04-29T05:15:34;10.50;99.90
43842;DHT22;29495;49.970;20.842;2023-04-29T05:18:27;10.40;99.90
43842;DHT22;29495;49.970;20.842;2023-04-29T05:20:59;10.60;99.90
43842;DHT22;29495;49.970;20.842;2023-04-29T05:24:06;10.60;99.90
43842;DHT22;29495;49.970;20.842;2023-04-29T05:26:57;10.60;99.90
43842;DHT22;29495;49.970;20.842;2023-04-29T08:11:44;14.00;98.60
43842;DHT22;29495;49.970;20.842;2023-04-29T08:15:34;13.90;99.90
43842;DHT22;29495;49.970;20.842;2023-04-29T08:19:40;14.00;99.90
43842;DHT22;29495;49.970;20.842;2023-04-29T08:40:45;14.20;99.90
43842;DHT22;29495;49.970;20.842;2023-04-29T09:42:20;16.20;95.10
43842;DHT22;29495;49.970;20.842;2023-04-29T09:44:46;16.20;93.00
43842;DHT22;29495;49.970;20.842;2023-04-29T09:47:13;16.10;93.00
43842;DHT22;29495;49.970;20.842;2023-04-29T09:49:41;16.20;95.40
43842;DHT22;29495;49.970;20.842;2023-04-29T09:52:12;15.90;96.40
43842;DHT22;29495;49.970;20.842;2023-04-29T09:54:40;16.20;96.80
43842;DHT22;29495;49.970;20.842;2023-04-29T09:57:09;16.20;94.20
43842;DHT22;29495;49.970;20.842;2023-04-29T09:59:37;16.20;95.10
43842;DHT22;29495;49.970;20.842;2023-04-29T10:02:16;16.20;96.90
43842;DHT22;29495;49.970;20.842;2023-04-29T10:04:55;16.60;98.20
43842;DHT22;29495;49.970;20.842;2023-04-29T10:07:22;16.70;95.40
43842;DHT22;29495;49.970;20.842;2023-04-29T10:09:51;16.90;95.60
43842;DHT22;29495;49.970;20.842;2023-04-29T10:12:19;16.90;96.10
43842;DHT22;29495;49.970;20.842;2023-04-29T10:17:45;16.70;91.30
43842;DHT22;29495;49.970;20.842;2023-04-29T10:20:13;16.90;94.20
43842;DHT22;29495;49.970;20.842;2023-04-29T10:22:48;16.80;91.80
43842;DHT22;29495;49.970;20.842;2023-04-29T10:25:15;16.90;92.50
43842;DHT22;29495;49.970;20.842;2023-04-29T10:27:43;16.90;92.90
43842;DHT22;29495;49.970;20.842;2023-04-29T10:30:23;16.80;90.20
43842;DHT22;29495;49.970;20.842;2023-04-29T10:33:11;17.00;90.10
43842;DHT22;29495;49.970;20.842;2023-04-29T11:17:01;18.80;74.30
43842;DHT22;29495;49.970;20.842;2023-04-29T11:19:32;18.70;69.90
43842;DHT22;29495;49.970;20.842;2023-04-29T11:22:09;18.60;71.60
43842;DHT22;29495;49.970;20.842;2023-04-29T11:24:47;18.50;72.90
43842;DHT22;29495;49.970;20.842;2023-04-29T11:27:14;18.90;76.80
43842;DHT22;29495;49.970;20.842;2023-04-29T11:29:40;19.10;71.00
43842;DHT22;29495;49.970;20.842;2023-04-29T11:32:07;18.80;69.90
43842;DHT22;29495;49.970;20.842;2023-04-29T11:34:33;18.40;66.50
43842;DHT22;29495;49.970;20.842;2023-04-29T11:36:59;18.70;74.70
43842;DHT22;29495;49.970;20.842;2023-04-29T11:39:26;18.80;69.90
43842;DHT22;29495;49.970;20.842;2023-04-29T11:42:05;18.80;71.20
43842;DHT22;29495;49.970;20.842;2023-04-29T11:44:35;19.00;72.70
43842;DHT22;29495;49.970;20.842;2023-04-29T11:47:02;19.00;68.50
43842;DHT22;29495;49.970;20.842;2023-04-29T11:49:30;18.90;72.90
43842;DHT22;29495;49.970;20.842;2023-04-29T11:51:57;19.10;73.70
43842;DHT22;29495;49.970;20.842;2023-04-29T11:54:27;19.20;68.20
43842;DHT22;29495;49.970;20.842;2023-04-29T11:56:53;19.20;65.00
43842;DHT22;29495;49.970;20.842;2023-04-29T11:59:22;19.10;69.40
43842;DHT22;29495;49.970;20.842;2023-04-29T12:01:49;18.60;68.20
43842;DHT22;29495;49.970;20.842;2023-04-29T12:04:16;18.40;69.10
43842;DHT22;29495;49.970;20.842;2023-04-29T12:06:46;18.40;72.70
43842;DHT22;29495;49.970;20.842;2023-04-29T12:09:16;18.30;73.10
43842;DHT22;29495;49.970;20.842;2023-04-29T12:11:44;18.30;75.80
43842;DHT22;29495;49.970;20.842;2023-04-29T12:14:12;18.30;71.20
43842;DHT22;29495;49.970;20.842;2023-04-29T12:16:39;18.60;72.00
43842;DHT22;29495;49.970;20.842;2023-04-29T12:19:05;18.70;66.90
43842;DHT22;29495;49.970;20.842;2023-04-29T12:21:33;18.80;67.10
43842;DHT22;29495;49.970;20.842;2023-04-29T12:24:01;18.60;67.40
43842;DHT22;29495;49.970;20.842;2023-04-29T12:26:29;18.60;72.50
43842;DHT22;29495;49.970;20.842;2023-04-29T12:28:56;18.80;69.90
43842;DHT22;29495;49.970;20.842;2023-04-29T12:31:23;18.90;69.40
43842;DHT22;29495;49.970;20.842;2023-04-29T12:33:53;18.90;70.10
43842;DHT22;29495;49.970;20.842;2023-04-29T12:36:20;18.80;66.90
43842;DHT22;29495;49.970;20.842;2023-04-29T12:38:47;18.70;66.30
43842;DHT22;29495;49.970;20.842;2023-04-29T12:41:13;18.70;71.60
43842;DHT22;29495;49.970;20.842;2023-04-29T12:43:42;18.60;72.80
43842;DHT22;29495;49.970;20.842;2023-04-29T12:46:09;18.60;71.20
43842;DHT22;29495;49.970;20.842;2023-04-29T12:48:37;18.30;69.10
43842;DHT22;29495;49.970;20.842;2023-04-29T12:51:11;18.10;70.80
43842;DHT22;29495;49.970;20.842;2023-04-29T12:53:38;18.10;70.60
43842;DHT22;29495;49.970;20.842;2023-04-29T12:56:04;18.00;73.40
43842;DHT22;29495;49.970;20.842;2023-04-29T12:58:31;17.80;71.30
43842;DHT22;29495;49.970;20.842;2023-04-29T13:00:59;17.90;75.60
43842;DHT22;29495;49.970;20.842;2023-04-29T13:03:25;18.00;71.80
43842;DHT22;29495;49.970;20.842;2023-04-29T13:05:51;18.00;71.20
43842;DHT22;29495;49.970;20.842;2023-04-29T13:08:19;18.00;72.10
43842;DHT22;29495;49.970;20.842;2023-04-29T13:10:48;18.00;74.90
43842;DHT22;29495;49.970;20.842;2023-04-29T13:13:18;17.90;73.00
43842;DHT22;29495;49.970;20.842;2023-04-29T13:15:45;17.80;75.10
43842;DHT22;29495;49.970;20.842;2023-04-29T13:18:12;17.90;75.60
43842;DHT22;29495;49.970;20.842;2023-04-29T13:20:38;17.90;73.10
43842;DHT22;29495;49.970;20.842;2023-04-29T13:23:04;17.90;73.80
43842;DHT22;29495;49.970;20.842;2023-04-29T13:25:30;17.80;71.40
43842;DHT22;29495;49.970;20.842;2023-04-29T13:27:57;17.80;73.10
43842;DHT22;29495;49.970;20.842;2023-04-29T13:30:23;17.90;74.80
43842;DHT22;29495;49.970;20.842;2023-04-29T13:32:49;18.00;73.20
43842;DHT22;29495;49.970;20.842;2023-04-29T13:35:15;18.10;70.40
43842;DHT22;29495;49.970;20.842;2023-04-29T13:37:42;18.20;72.40
43842;DHT22;29495;49.970;20.842;2023-04-29T13:40:08;18.00;73.60
43842;DHT22;29495;49.970;20.842;2023-04-29T13:42:35;17.90;72.90
43842;DHT22;29495;49.970;20.842;2023-04-29T13:45:01;18.10;72.90
43842;DHT22;29495;49.970;20.842;2023-04-29T13:47:29;18.10;74.40
43842;DHT22;29495;49.970;20.842;2023-04-29T13:49:55;18.10;72.90
43842;DHT22;29495;49.970;20.842;2023-04-29T13:52:22;18.30;77.70
43842;DHT22;29495;49.970;20.842;2023-04-29T13:54:48;18.40;78.20
43842;DHT22;29495;49.970;20.842;2023-04-29T13:57:14;18.50;78.10
43842;DHT22;29495;49.970;20.842;2023-04-29T13:59:41;18.40;79.50
43842;DHT22;29495;49.970;20.842;2023-04-29T14:05:49;18.40;75.40
43842;DHT22;29495;49.970;20.842;2023-04-29T14:08:16;18.50;72.40
43842;DHT22;29495;49.970;20.842;2023-04-29T14:10:42;18.60;74.80
43842;DHT22;29495;49.970;20.842;2023-04-29T14:13:08;18.60;75.10
43842;DHT22;29495;49.970;20.842;2023-04-29T14:15:34;18.70;79.80
43842;DHT22;29495;49.970;20.842;2023-04-29T14:18:00;18.40;72.80
43842;DHT22;29495;49.970;20.842;2023-04-29T14:20:31;18.40;73.50
43842;DHT22;29495;49.970;20.842;2023-04-29T14:23:05;18.30;74.30
43842;DHT22;29495;49.970;20.842;2023-04-29T14:25:37;18.30;78.40
43842;DHT22;29495;49.970;20.842;2023-04-29T14:28:51;18.30;78.00
43842;DHT22;29495;49.970;20.842;2023-04-29T14:31:29;18.10;80.10
43842;DHT22;29495;49.970;20.842;2023-04-29T14:34:09;17.80;79.70
43842;DHT22;29495;49.970;20.842;2023-04-29T14:37:04;17.70;82.40
43842;DHT22;29495;49.970;20.842;2023-04-29T14:39:47;17.60;80.10
43842;DHT22;29495;49.970;20.842;2023-04-29T14:42:34;17.50;83.00
43842;DHT22;29495;49.970;20.842;2023-04-29T14:45:29;17.60;81.60
43842;DHT22;29495;49.970;20.842;2023-04-29T14:50:53;17.60;77.80
43842;DHT22;29495;49.970;20.842;2023-04-29T14:53:40;17.60;79.60
43842;DHT22;29495;49.970;20.842;2023-04-29T14:58:50;17.40;78.70
43842;DHT22;29495;49.970;20.842;2023-04-29T15:04:35;17.40;81.90
43842;DHT22;29495;49.970;20.842;2023-04-29T15:07:17;17.30;81.40
43842;DHT22;29495;49.970;20.842;2023-04-29T15:09:44;17.30;85.00
43842;DHT22;29495;49.970;20.842;2023-04-29T15:12:11;17.30;84.40
43842;DHT22;29495;49.970;20.842;2023-04-29T15:15:11;17.30;89.00
43842;DHT22;29495;49.970;20.842;2023-04-29T15:17:40;17.20;92.60
43842;DHT22;29495;49.970;20.842;2023-04-29T15:20:26;17.30;91.60
43842;DHT22;29495;49.970;20.842;2023-04-29T15:22:59;17.20;93.20
43842;DHT22;29495;49.970;20.842;2023-04-29T15:25:51;17.30;93.30
43842;DHT22;29495;49.970;20.842;2023-04-29T15:28:18;17.30;86.00
43842;DHT22;29495;49.970;20.842;2023-04-29T15:30:47;17.30;93.40
43842;DHT22;29495;49.970;20.842;2023-04-29T15:33:24;17.40;91.10
43842;DHT22;29495;49.970;20.842;2023-04-29T15:35:51;17.30;90.90
43842;DHT22;29495;49.970;20.842;2023-04-29T15:41:15;17.30;90.60
43842;DHT22;29495;49.970;20.842;2023-04-29T15:43:46;17.30;90.80
43842;DHT22;29495;49.970;20.842;2023-04-29T15:46:18;17.30;91.10
43842;DHT22;29495;49.970;20.842;2023-04-29T15:48:50;17.30;92.10
43842;DHT22;29495;49.970;20.842;2023-04-29T15:51:17;17.20;90.60
43842;DHT22;29495;49.970;20.842;2023-04-29T15:53:43;17.20;90.70
43842;DHT22;29495;49.970;20.842;2023-04-29T15:56:09;17.20;91.70
43842;DHT22;29495;49.970;20.842;2023-04-29T15:58:36;17.20;89.40
43842;DHT22;29495;49.970;20.842;2023-04-29T16:01:02;17.20;85.80
43842;DHT22;29495;49.970;20.842;2023-04-29T16:03:29;17.30;90.70
43842;DHT22;29495;49.970;20.842;2023-04-29T16:05:55;17.40;88.30
43842;DHT22;29495;49.970;20.842;2023-04-29T16:08:21;17.30;90.00
43842;DHT22;29495;49.970;20.842;2023-04-29T16:10:47;17.30;98.00
43842;DHT22;29495;49.970;20.842;2023-04-29T16:13:16;17.30;98.60
43842;DHT22;29495;49.970;20.842;2023-04-29T16:15:43;17.30;99.60
43842;DHT22;29495;49.970;20.842;2023-04-29T16:18:09;17.30;99.90
43842;DHT22;29495;49.970;20.842;2023-04-29T16:20:35;17.30;99.90
43842;DHT22;29495;49.970;20.842;2023-04-29T16:23:01;17.20;99.90
43842;DHT22;29495;49.970;20.842;2023-04-29T16:25:27;17.20;99.90
43842;DHT22;29495;49.970;20.842;2023-04-29T16:27:54;17.20;99.90
43842;DHT22;29495;49.970;20.842;2023-04-29T16:30:20;17.10;99.90
43842;DHT22;29495;49.970;20.842;2023-04-29T16:32:46;17.10;99.90
43842;DHT22;29495;49.970;20.842;2023-04-29T16:35:12;17.10;99.90
43842;DHT22;29495;49.970;20.842;2023-04-29T16:37:38;16.80;99.90
43842;DHT22;29495;49.970;20.842;2023-04-29T16:40:05;16.70;99.90
43842;DHT22;29495;49.970;20.842;2023-04-29T16:42:31;16.60;99.90
43842;DHT22;29495;49.970;20.842;2023-04-29T16:44:57;16.60;99.90
43842;DHT22;29495;49.970;20.842;2023-04-29T16:47:23;16.60;99.90
43842;DHT22;29495;49.970;20.842;2023-04-29T16:49:49;16.60;99.90
43842;DHT22;29495;49.970;20.842;2023-04-29T16:52:16;16.60;99.90
43842;DHT22;29495;49.970;20.842;2023-04-29T16:54:42;16.60;99.90
43842;DHT22;29495;49.970;20.842;2023-04-29T16:57:08;16.60;99.90
43842;DHT22;29495;49.970;20.842;2023-04-29T16:59:34;16.60;99.90
43842;DHT22;29495;49.970;20.842;2023-04-29T17:02:00;16.30;99.90
43842;DHT22;29495;49.970;20.842;2023-04-29T17:04:29;16.20;99.90
43842;DHT22;29495;49.970;20.842;2023-04-29T17:06:55;16.10;99.90
43842;DHT22;29495;49.970;20.842;2023-04-29T17:09:21;16.00;99.90
43842;DHT22;29495;49.970;20.842;2023-04-29T17:11:51;15.90;99.90
43842;DHT22;29495;49.970;20.842;2023-04-29T17:14:17;15.80;99.90
43842;DHT22;29495;49.970;20.842;2023-04-29T17:16:43;15.90;99.90
43842;DHT22;29495;49.970;20.842;2023-04-29T17:19:09;15.80;99.90
43842;DHT22;29495;49.970;20.842;2023-04-29T17:21:35;15.80;99.90
43842;DHT22;29495;49.970;20.842;2023-04-29T17:24:01;15.90;99.90
43842;DHT22;29495;49.970;20.842;2023-04-29T17:26:27;15.80;99.90
43842;DHT22;29495;49.970;20.842;2023-04-29T17:28:53;15.70;99.90
43842;DHT22;29495;49.970;20.842;2023-04-29T17:31:19;15.70;99.90
43842;DHT22;29495;49.970;20.842;2023-04-29T17:33:50;15.60;99.90
43842;DHT22;29495;49.970;20.842;2023-04-29T17:36:30;15.50;99.90
43842;DHT22;29495;49.970;20.842;2023-04-29T17:38:57;15.40;99.90
43842;DHT22;29495;49.970;20.842;2023-04-29T17:41:24;15.40;99.90
43842;DHT22;29495;49.970;20.842;2023-04-29T17:43:49;15.50;99.90
43842;DHT22;29495;49.970;20.842;2023-04-29T17:46:16;15.60;99.90
43842;DHT22;29495;49.970;20.842;2023-04-29T17:48:42;15.50;99.90
43842;DHT22;29495;49.970;20.842;2023-04-29T17:51:08;15.40;99.90
43842;DHT22;29495;49.970;20.842;2023-04-29T17:53:34;15.50;99.90
43842;DHT22;29495;49.970;20.842;2023-04-29T17:56:12;15.50;99.90
43842;DHT22;29495;49.970;20.842;2023-04-29T17:58:38;15.50;99.90
43842;DHT22;29495;49.970;20.842;2023-04-29T18:01:04;15.40;99.90
